sensor_id;sensor_type;location;lat;lon;timestamp;pressure;altitude;pressure_sealevel;temperature;humidity
63500;BME280;49654;51.142;14.924;2024-02-26T00:01:58;98000.28;;;2.68;76.93
63500;BME280;49654;51.142;14.924;2024-02-26T00:04:25;97978.06;;;2.51;76.59
63500;BME280;49654;51.142;14.924;2024-02-26T00:06:52;97921.97;;;2.14;76.87
63500;BME280;49654;51.142;14.924;2024-02-26T00:09:20;97998.00;;;2.57;76.88
63500;BME280;49654;51.142;14.924;2024-02-26T00:11:48;97997.63;;;2.52;76.18
63500;BME280;49654;51.142;14.924;2024-02-26T00:14:15;97995.66;;;2.46;76.81
63500;BME280;49654;51.142;14.924;2024-02-26T00:16:42;97914.34;;;1.70;76.30
63500;BME280;49654;51.142;14.924;2024-02-26T00:19:10;98003.19;;;2.21;77.41
63500;BME280;49654;51.142;14.924;2024-02-26T00:21:40;98001.03;;;2.35;75.90
63500;BME280;49654;51.142;14.924;2024-02-26T00:24:07;97997.38;;;2.37;75.71
63500;BME280;49654;51.142;14.924;2024-02-26T00:26:34;97997.31;;;2.29;75.46
63500;BME280;49654;51.142;14.924;2024-02-26T00:29:02;97994.56;;;2.22;76.12
63500;BME280;49654;51.142;14.924;2024-02-26T00:31:29;97995.66;;;2.20;76.77
63500;BME280;49654;51.142;14.924;2024-02-26T00:33:56;97991.63;;;2.17;77.25
63500;BME280;49654;51.142;14.924;2024-02-26T00:36:23;97989.69;;;2.11;77.76
63500;BME280;49654;51.142;14.924;2024-02-26T00:38:50;97991.63;;;2.17;78.13
63500;BME280;49654;51.142;14.924;2024-02-26T00:41:17;97995.50;;;2.21;77.57
63500;BME280;49654;51.142;14.924;2024-02-26T00:43:44;97996.75;;;2.17;77.60
63500;BME280;49654;51.142;14.924;2024-02-26T00:46:12;98000.06;;;2.10;77.34
63500;BME280;49654;51.142;14.924;2024-02-26T00:48:39;97963.91;;;1.87;77.49
63500;BME280;49654;51.142;14.924;2024-02-26T00:51:06;97987.50;;;1.98;77.53
63500;BME280;49654;51.142;14.924;2024-02-26T00:53:34;97983.69;;;2.03;78.26
63500;BME280;49654;51.142;14.924;2024-02-26T00:56:01;97960.75;;;1.93;78.05
63500;BME280;49654;51.142;14.924;2024-02-26T00:58:28;97978.13;;;2.07;77.50
63500;BME280;49654;51.142;14.924;2024-02-26T01:00:55;97988.88;;;2.11;77.48
63500;BME280;49654;51.142;14.924;2024-02-26T01:03:23;97977.47;;;2.05;77.44
63500;BME280;49654;51.142;14.924;2024-02-26T01:05:50;97951.72;;;1.81;78.31
63500;BME280;49654;51.142;14.924;2024-02-26T01:08:17;97975.66;;;1.97;77.57
63500;BME280;49654;51.142;14.924;2024-02-26T01:10:44;97970.56;;;1.97;76.05
63500;BME280;49654;51.142;14.924;2024-02-26T01:13:11;97969.72;;;1.97;76.43
63500;BME280;49654;51.142;14.924;2024-02-26T01:15:38;97965.06;;;1.92;76.40
63500;BME280;49654;51.142;14.924;2024-02-26T01:18:04;97973.34;;;1.86;76.37
63500;BME280;49654;51.142;14.924;2024-02-26T01:20:33;97971.22;;;1.82;76.85
63500;BME280;49654;51.142;14.924;2024-02-26T01:23:00;97972.03;;;1.82;76.90
63500;BME280;49654;51.142;14.924;2024-02-26T01:25:26;97976.63;;;1.79;77.50
63500;BME280;49654;51.142;14.924;2024-02-26T01:27:53;97956.53;;;1.66;77.53
63500;BME280;49654;51.142;14.924;2024-02-26T01:30:21;97975.81;;;1.78;77.20
63500;BME280;49654;51.142;14.924;2024-02-26T01:32:48;97964.44;;;1.72;77.03
63500;BME280;49654;51.142;14.924;2024-02-26T01:35:15;97949.81;;;1.65;76.26
63500;BME280;49654;51.142;14.924;2024-02-26T01:37:43;97971.38;;;1.80;76.30
63500;BME280;49654;51.142;14.924;2024-02-26T01:40:11;97963.38;;;1.83;75.91
63500;BME280;49654;51.142;14.924;2024-02-26T01:42:44;97968.66;;;1.82;76.03
63500;BME280;49654;51.142;14.924;2024-02-26T01:45:14;97964.44;;;1.72;76.13
63500;BME280;49654;51.142;14.924;2024-02-26T01:47:47;97833.06;;;0.84;76.69
63500;BME280;49654;51.142;14.924;2024-02-26T01:50:14;97955.72;;;1.65;76.21
63500;BME280;49654;51.142;14.924;2024-02-26T01:52:41;97942.06;;;1.57;75.34
63500;BME280;49654;51.142;14.924;2024-02-26T01:55:09;97954.41;;;1.61;75.58
63500;BME280;49654;51.142;14.924;2024-02-26T01:57:36;97929.44;;;1.55;76.25
63500;BME280;49654;51.142;14.924;2024-02-26T02:00:04;97899.84;;;1.35;76.30
63500;BME280;49654;51.142;14.924;2024-02-26T02:02:33;97952.09;;;1.68;75.80
63500;BME280;49654;51.142;14.924;2024-02-26T02:05:00;97928.41;;;1.48;76.11
63500;BME280;49654;51.142;14.924;2024-02-26T02:07:28;97945.06;;;1.52;76.29
63500;BME280;49654;51.142;14.924;2024-02-26T02:09:56;97943.47;;;1.51;77.44
63500;BME280;49654;51.142;14.924;2024-02-26T02:12:24;97936.22;;;1.46;76.95
63500;BME280;49654;51.142;14.924;2024-02-26T02:14:51;97940.22;;;1.49;77.32
63500;BME280;49654;51.142;14.924;2024-02-26T02:17:19;97938.34;;;1.51;77.07
63500;BME280;49654;51.142;14.924;2024-02-26T02:19:45;97946.31;;;1.48;76.82
63500;BME280;49654;51.142;14.924;2024-02-26T02:22:14;97951.06;;;1.43;76.39
63500;BME280;49654;51.142;14.924;2024-02-26T02:24:41;97939.31;;;1.50;76.53
63500;BME280;49654;51.142;14.924;2024-02-26T02:27:08;97827.88;;;0.76;76.93
63500;BME280;49654;51.142;14.924;2024-02-26T02:29:35;97930.25;;;1.38;77.18
63500;BME280;49654;51.142;14.924;2024-02-26T02:32:03;97936.97;;;1.39;77.16
63500;BME280;49654;51.142;14.924;2024-02-26T02:34:31;97949.59;;;1.22;77.41
63500;BME280;49654;51.142;14.924;2024-02-26T02:36:59;97945.44;;;1.21;77.89
63500;BME280;49654;51.142;14.924;2024-02-26T02:39:28;97931.16;;;1.37;78.06
63500;BME280;49654;51.142;14.924;2024-02-26T02:41:54;97900.72;;;1.25;77.21
63500;BME280;49654;51.142;14.924;2024-02-26T02:44:21;97897.88;;;1.29;76.85
63500;BME280;49654;51.142;14.924;2024-02-26T02:46:48;97820.50;;;0.73;77.16
63500;BME280;49654;51.142;14.924;2024-02-26T02:49:17;97935.78;;;1.51;77.68
63500;BME280;49654;51.142;14.924;2024-02-26T02:51:44;97935.88;;;1.41;77.63
63500;BME280;49654;51.142;14.924;2024-02-26T02:54:11;97927.97;;;1.35;78.10
63500;BME280;49654;51.142;14.924;2024-02-26T02:56:39;97931.03;;;1.38;78.22
63500;BME280;49654;51.142;14.924;2024-02-26T02:59:06;97918.88;;;1.58;78.31
63500;BME280;49654;51.142;14.924;2024-02-26T03:01:33;97924.00;;;1.58;77.83
63500;BME280;49654;51.142;14.924;2024-02-26T03:04:00;97921.97;;;1.44;78.12
63500;BME280;49654;51.142;14.924;2024-02-26T03:06:27;97925.50;;;1.25;77.83
63500;BME280;49654;51.142;14.924;2024-02-26T03:08:54;97931.59;;;1.14;78.61
63500;BME280;49654;51.142;14.924;2024-02-26T03:11:21;97910.59;;;1.20;78.36
63500;BME280;49654;51.142;14.924;2024-02-26T03:13:49;97919.41;;;1.44;77.44
63500;BME280;49654;51.142;14.924;2024-02-26T03:16:16;97903.72;;;1.39;76.45
63500;BME280;49654;51.142;14.924;2024-02-26T03:18:44;97927.44;;;1.49;76.54
63500;BME280;49654;51.142;14.924;2024-02-26T03:21:11;97919.34;;;1.36;76.36
63500;BME280;49654;51.142;14.924;2024-02-26T03:23:38;97909.38;;;1.33;75.96
63500;BME280;49654;51.142;14.924;2024-02-26T03:26:05;97914.31;;;1.26;75.90
63500;BME280;49654;51.142;14.924;2024-02-26T03:28:32;97924.81;;;1.23;75.74
63500;BME280;49654;51.142;14.924;2024-02-26T03:31:01;97904.72;;;1.10;76.19
63500;BME280;49654;51.142;14.924;2024-02-26T03:33:28;97919.97;;;1.20;75.66
63500;BME280;49654;51.142;14.924;2024-02-26T03:35:55;97930.00;;;1.13;76.60
63500;BME280;49654;51.142;14.924;2024-02-26T03:38:22;97910.78;;;0.91;76.25
63500;BME280;49654;51.142;14.924;2024-02-26T03:40:49;97931.09;;;1.11;76.43
63500;BME280;49654;51.142;14.924;2024-02-26T03:43:16;97924.38;;;1.10;76.44
63500;BME280;49654;51.142;14.924;2024-02-26T03:45:43;97931.59;;;1.14;76.57
63500;BME280;49654;51.142;14.924;2024-02-26T03:48:11;97778.91;;;0.17;76.63
63500;BME280;49654;51.142;14.924;2024-02-26T03:50:38;97926.84;;;1.02;76.39
63500;BME280;49654;51.142;14.924;2024-02-26T03:53:05;97929.28;;;1.03;77.07
63500;BME280;49654;51.142;14.924;2024-02-26T03:55:34;97930.28;;;1.10;76.17
63500;BME280;49654;51.142;14.924;2024-02-26T03:58:01;97933.00;;;1.09;76.64
63500;BME280;49654;51.142;14.924;2024-02-26T04:00:28;97934.06;;;1.06;76.35
63500;BME280;49654;51.142;14.924;2024-02-26T04:02:56;97907.78;;;0.96;75.69
63500;BME280;49654;51.142;14.924;2024-02-26T04:05:24;97929.47;;;1.10;75.43
63500;BME280;49654;51.142;14.924;2024-02-26T04:07:51;97918.06;;;0.86;75.99
63500;BME280;49654;51.142;14.924;2024-02-26T04:10:18;97936.25;;;1.01;76.26
63500;BME280;49654;51.142;14.924;2024-02-26T04:12:45;97935.22;;;0.94;75.55
63500;BME280;49654;51.142;14.924;2024-02-26T04:15:12;97933.34;;;0.96;76.28
63500;BME280;49654;51.142;14.924;2024-02-26T04:17:39;97940.22;;;0.95;76.53
63500;BME280;49654;51.142;14.924;2024-02-26T04:20:07;97922.38;;;0.86;75.49
63500;BME280;49654;51.142;14.924;2024-02-26T04:22:36;97933.22;;;0.70;74.86
63500;BME280;49654;51.142;14.924;2024-02-26T04:25:04;97947.53;;;0.81;75.93
63500;BME280;49654;51.142;14.924;2024-02-26T04:27:31;97956.53;;;0.85;75.89
63500;BME280;49654;51.142;14.924;2024-02-26T04:29:58;97896.44;;;0.53;75.05
63500;BME280;49654;51.142;14.924;2024-02-26T04:32:25;97950.88;;;0.81;74.99
63500;BME280;49654;51.142;14.924;2024-02-26T04:34:52;97943.63;;;0.86;74.74
63500;BME280;49654;51.142;14.924;2024-02-26T04:37:19;97940.97;;;0.78;75.50
63500;BME280;49654;51.142;14.924;2024-02-26T04:39:47;97948.22;;;0.83;75.48
63500;BME280;49654;51.142;14.924;2024-02-26T04:42:14;97911.88;;;0.61;75.65
63500;BME280;49654;51.142;14.924;2024-02-26T04:44:41;97900.41;;;0.38;75.46
63500;BME280;49654;51.142;14.924;2024-02-26T04:47:08;97949.72;;;0.75;75.93
63500;BME280;49654;51.142;14.924;2024-02-26T04:49:35;97949.56;;;0.77;75.20
63500;BME280;49654;51.142;14.924;2024-02-26T04:52:02;97957.09;;;0.79;75.52
63500;BME280;49654;51.142;14.924;2024-02-26T04:54:29;97949.06;;;0.73;75.61
63500;BME280;49654;51.142;14.924;2024-02-26T04:56:57;97949.19;;;0.72;75.57
63500;BME280;49654;51.142;14.924;2024-02-26T04:59:24;97886.63;;;0.31;75.61
63500;BME280;49654;51.142;14.924;2024-02-26T05:01:51;97941.69;;;0.70;75.54
63500;BME280;49654;51.142;14.924;2024-02-26T05:04:18;97935.88;;;0.68;75.51
63500;BME280;49654;51.142;14.924;2024-02-26T05:06:45;97937.28;;;0.63;75.77
63500;BME280;49654;51.142;14.924;2024-02-26T05:09:12;97939.44;;;0.58;75.47
63500;BME280;49654;51.142;14.924;2024-02-26T05:11:39;97916.44;;;0.30;76.59
63500;BME280;49654;51.142;14.924;2024-02-26T05:14:08;97849.41;;;-0.19;76.31
63500;BME280;49654;51.142;14.924;2024-02-26T05:16:35;97936.47;;;0.62;77.69
63500;BME280;49654;51.142;14.924;2024-02-26T05:19:02;97935.50;;;0.73;77.68
63500;BME280;49654;51.142;14.924;2024-02-26T05:21:29;97932.28;;;0.89;77.41
63500;BME280;49654;51.142;14.924;2024-02-26T05:23:56;97914.91;;;0.74;76.82
63500;BME280;49654;51.142;14.924;2024-02-26T05:26:23;97930.97;;;0.85;76.82
63500;BME280;49654;51.142;14.924;2024-02-26T05:28:50;97932.97;;;0.91;76.87
63500;BME280;49654;51.142;14.924;2024-02-26T05:31:18;97939.00;;;0.90;76.25
63500;BME280;49654;51.142;14.924;2024-02-26T05:33:45;97914.44;;;0.61;75.90
63500;BME280;49654;51.142;14.924;2024-02-26T05:36:18;97938.28;;;0.52;77.15
63500;BME280;49654;51.142;14.924;2024-02-26T05:38:45;97942.97;;;0.47;78.73
63500;BME280;49654;51.142;14.924;2024-02-26T05:41:12;97947.16;;;0.48;79.10
63500;BME280;49654;51.142;14.924;2024-02-26T05:43:39;97947.53;;;0.53;78.82
63500;BME280;49654;51.142;14.924;2024-02-26T05:46:06;97947.88;;;0.68;78.19
63500;BME280;49654;51.142;14.924;2024-02-26T05:48:34;97944.97;;;0.81;77.93
63500;BME280;49654;51.142;14.924;2024-02-26T05:51:01;97954.44;;;0.70;77.66
63500;BME280;49654;51.142;14.924;2024-02-26T05:53:28;97849.59;;;0.07;77.23
63500;BME280;49654;51.142;14.924;2024-02-26T05:55:55;97961.53;;;0.77;77.11
63500;BME280;49654;51.142;14.924;2024-02-26T05:58:22;97956.06;;;0.71;77.05
63500;BME280;49654;51.142;14.924;2024-02-26T06:00:49;97957.28;;;0.67;77.11
63500;BME280;49654;51.142;14.924;2024-02-26T06:03:16;97920.66;;;0.49;77.35
63500;BME280;49654;51.142;14.924;2024-02-26T06:05:44;97964.72;;;0.61;78.08
63500;BME280;49654;51.142;14.924;2024-02-26T06:08:11;97963.28;;;0.76;78.36
63500;BME280;49654;51.142;14.924;2024-02-26T06:10:39;97926.00;;;0.56;77.48
63500;BME280;49654;51.142;14.924;2024-02-26T06:13:05;97859.78;;;0.17;76.49
63500;BME280;49654;51.142;14.924;2024-02-26T06:15:32;97970.78;;;0.87;75.80
63500;BME280;49654;51.142;14.924;2024-02-26T06:17:59;97979.00;;;0.81;75.40
63500;BME280;49654;51.142;14.924;2024-02-26T06:20:26;97977.88;;;0.66;76.95
63500;BME280;49654;51.142;14.924;2024-02-26T06:22:54;97944.81;;;0.64;77.93
63500;BME280;49654;51.142;14.924;2024-02-26T06:25:21;97964.91;;;0.77;77.31
63500;BME280;49654;51.142;14.924;2024-02-26T06:27:49;97956.84;;;0.72;77.63
63500;BME280;49654;51.142;14.924;2024-02-26T06:30:16;97975.47;;;0.92;78.16
63500;BME280;49654;51.142;14.924;2024-02-26T06:32:43;97984.03;;;1.00;78.39
63500;BME280;49654;51.142;14.924;2024-02-26T06:35:10;97985.19;;;1.06;78.38
63500;BME280;49654;51.142;14.924;2024-02-26T06:37:37;97993.84;;;1.23;78.22
63500;BME280;49654;51.142;14.924;2024-02-26T06:40:06;97937.88;;;1.02;77.40
63500;BME280;49654;51.142;14.924;2024-02-26T06:42:33;97995.84;;;1.29;77.92
63500;BME280;49654;51.142;14.924;2024-02-26T06:45:01;98001.00;;;1.47;77.00
63500;BME280;49654;51.142;14.924;2024-02-26T06:47:29;97999.06;;;1.49;76.90
63500;BME280;49654;51.142;14.924;2024-02-26T06:49:56;98004.50;;;1.46;77.24
63500;BME280;49654;51.142;14.924;2024-02-26T06:52:24;98015.66;;;1.45;77.67
63500;BME280;49654;51.142;14.924;2024-02-26T06:54:51;97998.63;;;1.36;77.82
63500;BME280;49654;51.142;14.924;2024-02-26T06:57:20;98003.75;;;1.54;78.52
63500;BME280;49654;51.142;14.924;2024-02-26T06:59:47;97995.34;;;1.61;78.19
63500;BME280;49654;51.142;14.924;2024-02-26T07:02:14;98009.38;;;1.75;78.33
63500;BME280;49654;51.142;14.924;2024-02-26T07:04:42;98010.56;;;1.81;77.79
63500;BME280;49654;51.142;14.924;2024-02-26T07:07:09;97984.97;;;1.81;78.19
63500;BME280;49654;51.142;14.924;2024-02-26T07:09:36;97963.63;;;1.72;78.50
63500;BME280;49654;51.142;14.924;2024-02-26T07:12:03;98004.75;;;2.14;79.11
63500;BME280;49654;51.142;14.924;2024-02-26T07:14:31;98002.63;;;2.28;79.99
63500;BME280;49654;51.142;14.924;2024-02-26T07:16:59;97999.66;;;2.40;80.05
63500;BME280;49654;51.142;14.924;2024-02-26T07:19:26;97994.06;;;2.45;79.59
63500;BME280;49654;51.142;14.924;2024-02-26T07:21:53;98005.22;;;2.62;79.62
63500;BME280;49654;51.142;14.924;2024-02-26T07:24:20;97985.47;;;2.54;79.17
63500;BME280;49654;51.142;14.924;2024-02-26T07:26:47;97955.25;;;2.40;79.55
63500;BME280;49654;51.142;14.924;2024-02-26T07:29:14;97998.13;;;2.90;79.51
63500;BME280;49654;51.142;14.924;2024-02-26T07:31:42;97999.75;;;2.99;79.66
63500;BME280;49654;51.142;14.924;2024-02-26T07:34:09;97992.44;;;3.04;79.50
63500;BME280;49654;51.142;14.924;2024-02-26T07:36:36;97963.09;;;3.07;79.89
63500;BME280;49654;51.142;14.924;2024-02-26T07:39:03;97993.81;;;3.49;79.54
63500;BME280;49654;51.142;14.924;2024-02-26T07:41:31;97979.38;;;3.48;78.97
63500;BME280;49654;51.142;14.924;2024-02-26T07:43:57;97988.88;;;3.80;79.88
63500;BME280;49654;51.142;14.924;2024-02-26T07:46:24;97990.66;;;3.96;79.48
63500;BME280;49654;51.142;14.924;2024-02-26T07:48:53;97902.41;;;3.56;79.50
63500;BME280;49654;51.142;14.924;2024-02-26T07:51:20;97966.38;;;4.23;79.18
63500;BME280;49654;51.142;14.924;2024-02-26T07:53:48;97991.22;;;4.55;78.67
63500;BME280;49654;51.142;14.924;2024-02-26T07:56:15;97990.22;;;4.64;78.44
63500;BME280;49654;51.142;14.924;2024-02-26T07:58:42;97993.06;;;4.77;78.59
63500;BME280;49654;51.142;14.924;2024-02-26T08:01:09;97988.88;;;4.85;79.23
63500;BME280;49654;51.142;14.924;2024-02-26T08:03:37;97995.84;;;5.07;79.38
63500;BME280;49654;51.142;14.924;2024-02-26T08:06:05;97973.97;;;5.11;79.77
63500;BME280;49654;51.142;14.924;2024-02-26T08:08:32;97986.00;;;5.42;79.08
63500;BME280;49654;51.142;14.924;2024-02-26T08:10:59;97956.44;;;5.38;79.19
63500;BME280;49654;51.142;14.924;2024-02-26T08:13:26;97981.44;;;5.75;78.89
63500;BME280;49654;51.142;14.924;2024-02-26T08:15:53;97930.31;;;5.49;78.80
63500;BME280;49654;51.142;14.924;2024-02-26T08:18:20;97873.97;;;5.31;78.91
63500;BME280;49654;51.142;14.924;2024-02-26T08:20:47;97954.09;;;5.97;78.84
63500;BME280;49654;51.142;14.924;2024-02-26T08:23:16;97974.84;;;6.18;78.71
63500;BME280;49654;51.142;14.924;2024-02-26T08:25:43;97981.03;;;6.47;77.15
63500;BME280;49654;51.142;14.924;2024-02-26T08:28:10;97985.91;;;6.71;75.77
63500;BME280;49654;51.142;14.924;2024-02-26T08:30:39;97991.22;;;6.85;75.54
63500;BME280;49654;51.142;14.924;2024-02-26T08:33:05;97992.47;;;6.89;74.97
63500;BME280;49654;51.142;14.924;2024-02-26T08:35:32;97994.81;;;6.98;74.86
63500;BME280;49654;51.142;14.924;2024-02-26T08:37:59;97990.50;;;7.20;74.15
63500;BME280;49654;51.142;14.924;2024-02-26T08:40:27;97987.81;;;7.28;74.03
63500;BME280;49654;51.142;14.924;2024-02-26T08:42:54;97985.97;;;7.44;73.60
63500;BME280;49654;51.142;14.924;2024-02-26T08:45:22;97971.53;;;7.71;71.96
63500;BME280;49654;51.142;14.924;2024-02-26T08:47:48;97953.03;;;8.51;72.31
63500;BME280;49654;51.142;14.924;2024-02-26T08:50:15;97894.81;;;9.43;69.07
63500;BME280;49654;51.142;14.924;2024-02-26T08:52:42;97970.44;;;11.74;63.40
63500;BME280;49654;51.142;14.924;2024-02-26T08:55:09;97971.41;;;12.73;57.51
63500;BME280;49654;51.142;14.924;2024-02-26T08:57:38;97944.31;;;13.11;54.45
63500;BME280;49654;51.142;14.924;2024-02-26T09:00:06;97955.44;;;13.48;53.64
63500;BME280;49654;51.142;14.924;2024-02-26T09:02:33;97988.06;;;14.35;51.32
63500;BME280;49654;51.142;14.924;2024-02-26T09:05:00;97987.34;;;15.26;48.69
63500;BME280;49654;51.142;14.924;2024-02-26T09:07:27;97984.63;;;15.78;46.88
63500;BME280;49654;51.142;14.924;2024-02-26T09:09:54;97962.56;;;15.46;45.82
63500;BME280;49654;51.142;14.924;2024-02-26T09:12:20;97978.59;;;15.49;46.66
63500;BME280;49654;51.142;14.924;2024-02-26T09:14:49;97977.75;;;15.03;46.33
63500;BME280;49654;51.142;14.924;2024-02-26T09:17:16;97979.59;;;15.32;46.72
63500;BME280;49654;51.142;14.924;2024-02-26T09:19:42;97979.69;;;15.65;45.56
63500;BME280;49654;51.142;14.924;2024-02-26T09:22:10;97977.75;;;15.89;45.74
63500;BME280;49654;51.142;14.924;2024-02-26T09:24:37;97981.03;;;15.39;45.46
63500;BME280;49654;51.142;14.924;2024-02-26T09:27:04;97939.09;;;15.06;45.62
63500;BME280;49654;51.142;14.924;2024-02-26T09:29:31;97964.91;;;15.59;45.68
63500;BME280;49654;51.142;14.924;2024-02-26T09:32:00;97979.22;;;15.40;45.87
63500;BME280;49654;51.142;14.924;2024-02-26T09:34:26;97973.44;;;15.66;45.41
63500;BME280;49654;51.142;14.924;2024-02-26T09:36:54;97965.75;;;15.48;45.45
63500;BME280;49654;51.142;14.924;2024-02-26T09:39:21;97981.75;;;15.35;45.44
63500;BME280;49654;51.142;14.924;2024-02-26T09:41:48;97971.13;;;15.13;45.89
63500;BME280;49654;51.142;14.924;2024-02-26T09:44:18;97975.00;;;14.58;47.50
63500;BME280;49654;51.142;14.924;2024-02-26T09:46:47;97977.47;;;14.06;48.42
63500;BME280;49654;51.142;14.924;2024-02-26T09:49:17;97986.38;;;12.78;51.49
63500;BME280;49654;51.142;14.924;2024-02-26T09:51:45;97977.47;;;12.86;52.14
63500;BME280;49654;51.142;14.924;2024-02-26T09:54:13;97930.63;;;12.24;53.26
63500;BME280;49654;51.142;14.924;2024-02-26T09:56:41;97988.53;;;12.19;54.21
63500;BME280;49654;51.142;14.924;2024-02-26T09:59:10;97988.16;;;12.16;54.35
63500;BME280;49654;51.142;14.924;2024-02-26T10:01:42;97980.59;;;12.33;54.72
63500;BME280;49654;51.142;14.924;2024-02-26T10:04:09;97883.88;;;11.42;53.79
63500;BME280;49654;51.142;14.924;2024-02-26T10:06:38;97987.56;;;11.89;53.18
63500;BME280;49654;51.142;14.924;2024-02-26T10:09:08;97879.69;;;11.10;53.57
63500;BME280;49654;51.142;14.924;2024-02-26T10:11:37;97986.00;;;12.13;52.91
63500;BME280;49654;51.142;14.924;2024-02-26T10:14:04;97905.13;;;11.89;52.98
63500;BME280;49654;51.142;14.924;2024-02-26T10:16:32;97977.59;;;12.54;53.16
63500;BME280;49654;51.142;14.924;2024-02-26T10:19:00;97924.13;;;12.15;52.65
63500;BME280;49654;51.142;14.924;2024-02-26T10:21:27;97985.94;;;12.81;53.16
63500;BME280;49654;51.142;14.924;2024-02-26T10:23:55;97954.59;;;12.88;52.27
63500;BME280;49654;51.142;14.924;2024-02-26T10:26:22;97944.88;;;13.13;52.21
63500;BME280;49654;51.142;14.924;2024-02-26T10:28:49;97987.81;;;13.29;51.26
63500;BME280;49654;51.142;14.924;2024-02-26T10:31:16;97850.63;;;12.38;51.88
63500;BME280;49654;51.142;14.924;2024-02-26T10:33:44;97930.75;;;13.21;50.76
63500;BME280;49654;51.142;14.924;2024-02-26T10:36:11;97985.88;;;13.55;50.28
63500;BME280;49654;51.142;14.924;2024-02-26T10:38:38;97986.53;;;13.50;51.10
63500;BME280;49654;51.142;14.924;2024-02-26T10:41:07;97965.97;;;13.42;51.37
63500;BME280;49654;51.142;14.924;2024-02-26T10:43:41;97975.59;;;13.71;50.70
63500;BME280;49654;51.142;14.924;2024-02-26T10:46:09;97980.47;;;13.68;50.64
63500;BME280;49654;51.142;14.924;2024-02-26T10:48:36;97986.66;;;13.97;48.90
63500;BME280;49654;51.142;14.924;2024-02-26T10:51:04;97958.47;;;13.87;48.64
63500;BME280;49654;51.142;14.924;2024-02-26T10:53:30;97981.22;;;14.10;48.25
63500;BME280;49654;51.142;14.924;2024-02-26T10:56:01;97915.69;;;13.65;47.67
63500;BME280;49654;51.142;14.924;2024-02-26T10:58:31;97983.31;;;13.78;47.71
63500;BME280;49654;51.142;14.924;2024-02-26T11:00:58;97945.47;;;13.45;48.77
63500;BME280;49654;51.142;14.924;2024-02-26T11:03:26;97970.63;;;13.82;48.05
63500;BME280;49654;51.142;14.924;2024-02-26T11:05:53;97861.34;;;13.38;47.61
63500;BME280;49654;51.142;14.924;2024-02-26T11:08:21;97954.56;;;14.32;48.39
63500;BME280;49654;51.142;14.924;2024-02-26T11:10:53;97866.25;;;13.70;46.00
63500;BME280;49654;51.142;14.924;2024-02-26T11:13:21;97978.94;;;14.25;46.10
63500;BME280;49654;51.142;14.924;2024-02-26T11:15:51;97966.81;;;14.19;48.47
63500;BME280;49654;51.142;14.924;2024-02-26T11:18:19;97969.31;;;14.61;46.44
63500;BME280;49654;51.142;14.924;2024-02-26T11:20:46;97972.34;;;15.22;45.59
63500;BME280;49654;51.142;14.924;2024-02-26T11:23:14;97954.41;;;15.42;43.64
63500;BME280;49654;51.142;14.924;2024-02-26T11:25:42;97953.78;;;15.52;42.80
63500;BME280;49654;51.142;14.924;2024-02-26T11:28:13;97969.22;;;15.37;42.95
63500;BME280;49654;51.142;14.924;2024-02-26T11:30:44;97934.97;;;15.21;42.94
63500;BME280;49654;51.142;14.924;2024-02-26T11:33:15;97907.41;;;15.47;43.81
63500;BME280;49654;51.142;14.924;2024-02-26T11:35:43;97932.81;;;15.64;43.19
63500;BME280;49654;51.142;14.924;2024-02-26T11:38:17;97973.03;;;15.74;43.28
63500;BME280;49654;51.142;14.924;2024-02-26T11:40:46;97905.91;;;15.51;43.41
63500;BME280;49654;51.142;14.924;2024-02-26T11:43:14;97969.88;;;15.72;44.84
63500;BME280;49654;51.142;14.924;2024-02-26T11:45:50;97978.47;;;15.56;45.19
63500;BME280;49654;51.142;14.924;2024-02-26T11:48:24;97967.66;;;15.64;44.98
63500;BME280;49654;51.142;14.924;2024-02-26T11:50:52;97944.44;;;15.85;44.86
63500;BME280;49654;51.142;14.924;2024-02-26T11:53:24;97984.16;;;16.32;43.68
63500;BME280;49654;51.142;14.924;2024-02-26T11:56:22;97975.47;;;16.48;43.86
63500;BME280;49654;51.142;14.924;2024-02-26T11:58:53;97883.72;;;15.88;44.02
63500;BME280;49654;51.142;14.924;2024-02-26T12:01:39;97984.53;;;16.58;45.04
63500;BME280;49654;51.142;14.924;2024-02-26T12:04:11;97986.88;;;16.76;44.56
63500;BME280;49654;51.142;14.924;2024-02-26T12:06:42;97987.66;;;16.76;44.39
63500;BME280;49654;51.142;14.924;2024-02-26T12:09:10;97983.19;;;16.21;44.43
63500;BME280;49654;51.142;14.924;2024-02-26T12:11:39;97989.97;;;16.56;43.98
63500;BME280;49654;51.142;14.924;2024-02-26T12:14:08;97987.13;;;16.96;43.97
63500;BME280;49654;51.142;14.924;2024-02-26T12:16:36;97983.97;;;17.70;43.18
63500;BME280;49654;51.142;14.924;2024-02-26T12:19:05;97951.81;;;17.85;42.67
63500;BME280;49654;51.142;14.924;2024-02-26T12:21:35;97958.19;;;18.32;40.75
63500;BME280;49654;51.142;14.924;2024-02-26T12:24:10;97897.53;;;17.96;41.02
63500;BME280;49654;51.142;14.924;2024-02-26T12:26:38;97980.75;;;18.27;40.33
63500;BME280;49654;51.142;14.924;2024-02-26T12:29:06;97982.06;;;18.67;39.86
63500;BME280;49654;51.142;14.924;2024-02-26T12:31:33;97981.47;;;19.08;40.08
63500;BME280;49654;51.142;14.924;2024-02-26T12:34:02;97979.00;;;18.86;40.25
63500;BME280;49654;51.142;14.924;2024-02-26T12:36:30;97977.16;;;18.81;39.26
63500;BME280;49654;51.142;14.924;2024-02-26T12:38:58;97983.66;;;18.31;39.97
63500;BME280;49654;51.142;14.924;2024-02-26T12:41:26;97988.25;;;18.46;40.95
63500;BME280;49654;51.142;14.924;2024-02-26T12:43:53;97988.09;;;18.68;41.16
63500;BME280;49654;51.142;14.924;2024-02-26T12:46:20;97984.28;;;18.86;39.87
63500;BME280;49654;51.142;14.924;2024-02-26T12:48:48;97986.13;;;18.43;39.69
63500;BME280;49654;51.142;14.924;2024-02-26T12:51:16;97935.25;;;18.17;40.55
63500;BME280;49654;51.142;14.924;2024-02-26T12:53:44;97994.84;;;18.53;40.74
63500;BME280;49654;51.142;14.924;2024-02-26T12:56:13;98007.72;;;18.50;41.63
63500;BME280;49654;51.142;14.924;2024-02-26T12:58:40;98004.81;;;18.09;41.74
63500;BME280;49654;51.142;14.924;2024-02-26T13:01:14;97995.00;;;17.72;41.50